Time;durP1;ratioP1;P1;durP2;ratioP2;P2;SDS_P1;SDS_P2;PMS_P1;PMS_P2;Temp;Humidity;BMP_temperature;BMP_pressure;BME280_temperature;BME280_humidity;BME280_pressure;Samples;Min_cycle;Max_cycle;Signal;HPM_P1;HPM_P2
2023/01/25 00:02:56;;;;;;;4.20;3.08;;;;;;;18.43;30.33;103618.50;16130786;19;129939;-48
2023/01/25 00:08:20;;;;;;;4.85;3.17;;;;;;;18.39;30.30;103611.59;16128956;19;129726;-51
2023/01/25 00:13:42;;;;;;;4.90;3.22;;;;;;;18.35;30.48;103596.31;16127173;19;132100;-50
2023/01/25 00:19:05;;;;;;;5.03;3.30;;;;;;;18.29;30.17;103591.50;16129169;19;130694;-48
2023/01/25 00:24:27;;;;;;;6.70;2.88;;;;;;;18.25;30.52;103587.34;16127246;19;131123;-51
2023/01/25 00:29:49;;;;;;;3.17;2.80;;;;;;;18.22;30.62;103590.47;16124580;19;130032;-50
2023/01/25 00:35:11;;;;;;;3.17;2.78;;;;;;;18.18;30.69;103586.34;16126658;19;131074;-55
2023/01/25 00:40:33;;;;;;;4.95;3.00;;;;;;;18.12;30.35;103591.56;16127008;19;130891;-50
2023/01/25 00:46:01;;;;;;;3.50;3.20;;;;;;;18.09;30.71;103591.91;16125337;19;129882;-50
2023/01/25 00:51:24;;;;;;;3.78;3.28;;;;;;;18.04;30.31;103588.81;16125631;19;131608;-53
2023/01/25 00:56:45;;;;;;;3.20;2.90;;;;;;;18.00;30.43;103587.44;16125746;19;131789;-54
2023/01/25 01:02:07;;;;;;;3.13;2.83;;;;;;;17.97;30.26;103583.13;16124739;19;130166;-54
2023/01/25 01:07:29;;;;;;;3.13;2.83;;;;;;;17.94;30.43;103585.38;16124076;19;131293;-50
2023/01/25 01:12:51;;;;;;;3.10;2.80;;;;;;;17.89;30.33;103576.72;16122959;19;130150;-52
2023/01/25 01:18:13;;;;;;;2.95;2.58;;;;;;;17.83;30.39;103570.88;16127270;19;130056;-49
2023/01/25 01:23:35;;;;;;;3.05;2.75;;;;;;;17.83;30.83;103564.47;16126244;19;129880;-51
2023/01/25 01:28:57;;;;;;;4.20;2.58;;;;;;;17.78;30.56;103562.22;16125422;19;129844;-49
2023/01/25 01:34:19;;;;;;;4.10;3.70;;;;;;;17.74;30.44;103566.38;16126078;19;129724;-52
2023/01/25 01:39:41;;;;;;;4.10;3.70;;;;;;;17.71;30.59;103577.81;16122239;19;131775;-52
2023/01/25 01:45:41;;;;;;;4.15;3.80;;;;;;;17.70;30.61;103573.31;16125617;19;129509;-51
2023/01/25 01:51:13;;;;;;;3.60;3.30;;;;;;;17.67;30.41;103568.13;16121419;19;130796;-49
2023/01/25 01:56:45;;;;;;;3.30;3.00;;;;;;;17.62;30.52;103567.78;16122595;19;130880;-50
2023/01/25 02:02:07;;;;;;;3.28;3.00;;;;;;;17.58;30.37;103578.34;16121794;19;129778;-50
2023/01/25 02:07:35;;;;;;;3.40;3.10;;;;;;;17.57;30.39;103578.53;16121381;19;130486;-48
2023/01/25 02:12:57;;;;;;;3.17;2.90;;;;;;;17.53;30.59;103570.53;16123771;19;130939;-52
2023/01/25 02:18:19;;;;;;;3.30;3.00;;;;;;;17.52;30.72;103574.34;16115716;19;130674;-50
2023/01/25 02:23:50;;;;;;;3.20;2.90;;;;;;;17.51;30.41;103561.53;16114723;19;129054;-55
2023/01/25 02:29:13;;;;;;;3.17;2.88;;;;;;;17.48;30.57;103566.56;16117380;19;129363;-51
2023/01/25 02:34:35;;;;;;;2.78;2.58;;;;;;;17.45;30.53;103551.16;16110141;19;130342;-51
2023/01/25 02:39:56;;;;;;;3.10;2.90;;;;;;;17.43;30.34;103550.47;16118931;19;129359;-51
2023/01/25 02:45:26;;;;;;;3.15;2.78;;;;;;;17.41;30.54;103551.69;16122180;19;129573;-50
2023/01/25 02:50:48;;;;;;;4.20;3.80;;;;;;;17.38;30.32;103555.66;16116357;19;133577;-51
2023/01/25 02:56:10;;;;;;;3.00;2.70;;;;;;;17.38;30.58;103552.88;16120264;19;130349;-50
2023/01/25 03:01:33;;;;;;;3.13;2.83;;;;;;;17.35;30.68;103550.50;16120328;19;131906;-47
2023/01/25 03:06:55;;;;;;;3.53;3.22;;;;;;;17.34;30.44;103551.53;16115401;19;129347;-52
2023/01/25 03:12:17;;;;;;;2.83;2.63;;;;;;;17.31;30.60;103538.03;16121296;19;130686;-51
2023/01/25 03:17:39;;;;;;;2.90;2.70;;;;;;;17.30;30.82;103533.53;16116163;19;129564;-55
2023/01/25 03:23:00;;;;;;;3.30;3.00;;;;;;;17.28;30.80;103533.72;16115888;19;129044;-52
2023/01/25 03:28:22;;;;;;;3.33;3.03;;;;;;;17.27;30.41;103531.09;16114640;19;129633;-51
2023/01/25 03:33:45;;;;;;;2.83;2.63;;;;;;;17.23;30.59;103520.38;16114736;19;129431;-55
2023/01/25 03:39:06;;;;;;;2.97;2.78;;;;;;;17.22;30.95;103521.44;16115775;19;129989;-49
2023/01/25 03:44:28;;;;;;;2.90;2.70;;;;;;;17.20;30.47;103519.88;16116361;19;133513;-52
2023/01/25 03:49:50;;;;;;;2.90;2.60;;;;;;;17.16;30.77;103507.44;16115830;19;129391;-53
2023/01/25 03:55:12;;;;;;;3.35;3.05;;;;;;;17.16;30.76;103507.44;16113783;19;129682;-47
2023/01/25 04:00:33;;;;;;;2.88;2.67;;;;;;;17.14;30.60;103504.81;16108168;19;130295;-51
2023/01/25 04:05:56;;;;;;;3.10;2.80;;;;;;;17.12;30.76;103504.13;16127251;19;130617;-48
2023/01/25 04:11:18;;;;;;;3.00;2.80;;;;;;;17.11;30.57;103494.09;16128200;19;129315;-50
2023/01/25 04:16:40;;;;;;;3.30;3.00;;;;;;;17.09;30.80;103504.50;16127173;19;130729;-49
2023/01/25 04:22:02;;;;;;;2.58;2.38;;;;;;;17.08;30.92;103502.78;16127146;19;129556;-52
2023/01/25 04:27:24;;;;;;;2.95;2.60;;;;;;;17.07;30.74;103501.03;16128968;19;129827;-51
2023/01/25 04:32:46;;;;;;;2.70;2.50;;;;;;;17.04;30.98;103498.59;16127463;19;130228;-54
2023/01/25 04:38:09;;;;;;;3.13;2.83;;;;;;;17.03;30.77;103494.09;16124741;19;129313;-55
2023/01/25 04:43:30;;;;;;;3.15;2.88;;;;;;;17.00;30.64;103487.03;16131903;19;130887;-57
2023/01/25 04:48:52;;;;;;;3.90;3.50;;;;;;;16.99;30.79;103495.47;16127085;19;133744;-58
2023/01/25 04:54:14;;;;;;;3.30;3.00;;;;;;;16.97;30.85;103484.59;16128958;19;129296;-53
2023/01/25 04:59:36;;;;;;;4.50;2.90;;;;;;;16.96;30.89;103493.09;16128246;19;131219;-52
2023/01/25 05:04:58;;;;;;;3.53;3.10;;;;;;;16.95;30.69;103488.59;16122437;19;129476;-48
2023/01/25 05:10:20;;;;;;;3.45;3.15;;;;;;;16.93;31.00;103488.75;16127366;19;129327;-48
2023/01/25 05:15:41;;;;;;;2.80;2.60;;;;;;;16.91;30.95;103480.63;16123443;19;131244;-49
2023/01/25 05:21:03;;;;;;;3.38;3.08;;;;;;;16.88;31.12;103477.34;16126620;19;129300;-51
2023/01/25 05:32:08;;;;;;;3.28;2.95;;;;;;;16.87;30.97;103473.69;16125165;19;130397;-50
2023/01/25 05:37:29;;;;;;;3.20;2.90;;;;;;;16.85;31.09;103474.91;16125053;19;129431;-49
2023/01/25 05:43:01;;;;;;;3.17;2.88;;;;;;;16.85;30.81;103466.63;16126667;19;129745;-50
2023/01/25 05:48:23;;;;;;;3.70;3.40;;;;;;;16.82;30.63;103455.91;16121590;19;129577;-53
2023/01/25 05:53:45;;;;;;;3.33;3.03;;;;;;;16.80;30.96;103456.09;16120904;19;132019;-49
2023/01/25 05:59:06;;;;;;;3.38;3.08;;;;;;;16.78;30.70;103460.91;16120841;19;130184;-55
2023/01/25 06:04:28;;;;;;;3.58;2.80;;;;;;;16.77;30.92;103454.53;16118334;19;132800;-57
2023/01/25 06:09:50;;;;;;;2.42;2.13;;;;;;;16.90;30.79;103453.16;16120719;19;130660;-57
2023/01/25 06:15:12;;;;;;;2.83;2.25;;;;;;;17.33;30.59;103452.94;16119427;19;129750;-56
2023/01/25 06:20:33;;;;;;;2.65;2.45;;;;;;;17.79;29.79;103439.34;16117214;19;133636;-64
2023/01/25 06:26:00;;;;;;;2.67;2.10;;;;;;;18.19;29.68;103436.56;16104631;19;129726;-57
2023/01/25 06:31:22;;;;;;;2.80;2.40;;;;;;;18.54;29.27;103439.81;16105984;19;129479;-56
2023/01/25 06:36:44;;;;;;;2.58;2.25;;;;;;;18.95;28.74;103441.41;16110443;19;132229;-52
2023/01/25 06:42:06;;;;;;;2.20;2.00;;;;;;;19.33;28.37;103438.63;16111458;19;128868;-49
2023/01/25 06:47:28;;;;;;;2.88;2.38;;;;;;;19.53;28.08;103440.84;16113588;19;130706;-50
2023/01/25 06:52:53;;;;;;;2.88;2.35;;;;;;;19.61;28.32;103440.75;16117556;19;130857;-49
2023/01/25 06:58:15;;;;;;;;;;;;;;;19.55;27.94;103443.41;16120426;19;129439;-52
2023/01/25 07:03:37;;;;;;;7.18;2.50;;;;;;;19.46;28.05;103442.66;16121944;19;129432;-52
2023/01/25 07:09:07;;;;;;;3.03;2.72;;;;;;;19.31;28.10;103440.75;16119179;19;130759;-53
2023/01/25 07:14:29;;;;;;;2.78;2.35;;;;;;;19.12;28.72;103439.34;16118513;19;130445;-50
2023/01/25 07:19:51;;;;;;;4.30;3.22;;;;;;;18.93;28.52;103440.75;16118873;19;130955;-53
2023/01/25 07:25:13;;;;;;;5.68;3.22;;;;;;;18.75;28.98;103441.91;16116428;19;131819;-52
2023/01/25 07:30:35;;;;;;;3.95;3.55;;;;;;;18.60;29.04;103433.53;16117105;19;129838;-52
2023/01/25 07:36:05;;;;;;;5.57;3.60;;;;;;;18.49;28.93;103436.75;16117669;19;129509;-52
2023/01/25 07:41:27;;;;;;;4.07;3.25;;;;;;;18.35;29.12;103434.72;16131287;19;130986;-54
2023/01/25 07:46:49;;;;;;;5.35;4.45;;;;;;;18.22;29.34;103432.53;16131798;19;129556;-50
2023/01/25 07:52:10;;;;;;;5.88;5.28;;;;;;;18.12;29.35;103436.41;16133010;19;129322;-47
2023/01/25 07:57:32;;;;;;;5.25;4.45;;;;;;;18.03;29.60;103426.44;16133043;19;130072;-48
2023/01/25 08:02:54;;;;;;;5.65;4.93;;;;;;;17.94;29.64;103425.59;16130551;19;129429;-51
2023/01/25 08:08:15;;;;;;;4.30;3.90;;;;;;;17.92;29.29;103424.06;16129842;19;129483;-50
2023/01/25 08:13:38;;;;;;;4.22;3.72;;;;;;;18.03;29.24;103418.13;16130637;19;131608;-51
2023/01/25 08:19:02;;;;;;;4.85;3.50;;;;;;;18.25;28.99;103410.03;16127978;19;129987;-46
2023/01/25 08:24:24;;;;;;;3.90;3.50;;;;;;;18.50;28.96;103416.31;16130627;19;129931;-51
2023/01/25 08:29:46;;;;;;;3.55;3.00;;;;;;;18.72;28.87;103409.00;16125435;19;130160;-50
2023/01/25 08:35:08;;;;;;;3.53;3.22;;;;;;;18.90;28.58;103416.13;16125851;19;129300;-51
2023/01/25 08:40:30;;;;;;;3.80;3.40;;;;;;;19.06;28.56;103407.66;16128095;19;130816;-53
2023/01/25 08:45:56;;;;;;;3.38;3.08;;;;;;;19.18;28.23;103396.94;16126740;19;130488;-51
2023/01/25 08:51:18;;;;;;;3.47;3.17;;;;;;;19.25;28.28;103397.09;16126850;19;129966;-51
2023/01/25 08:56:41;;;;;;;3.55;3.25;;;;;;;19.25;28.00;103397.09;16125153;19;130076;-51
2023/01/25 09:02:02;;;;;;;4.63;3.17;;;;;;;19.22;28.20;103398.34;16128746;19;129178;-53
2023/01/25 09:07:24;;;;;;;3.70;3.30;;;;;;;19.16;28.05;103400.97;16130034;19;129296;-51
2023/01/25 09:12:46;;;;;;;4.10;3.33;;;;;;;19.10;28.49;103393.41;16124300;19;129946;-54
2023/01/25 09:18:08;;;;;;;4.00;3.70;;;;;;;19.02;28.34;103398.00;16127157;19;129298;-54
2023/01/25 09:23:29;;;;;;;3.83;3.40;;;;;;;18.94;28.63;103400.84;16125477;19;129468;-54
2023/01/25 09:28:54;;;;;;;3.38;3.08;;;;;;;18.87;28.55;103399.88;16125525;19;132997;-49
2023/01/25 09:34:16;;;;;;;5.90;5.40;;;;;;;18.80;28.68;103396.13;16125280;19;129482;-54
2023/01/25 09:39:37;;;;;;;5.78;5.28;;;;;;;18.71;28.39;103387.88;16121163;19;130777;-55
2023/01/25 09:45:08;;;;;;;4.78;4.38;;;;;;;18.69;28.77;103389.97;16122353;19;129398;-54
2023/01/25 09:50:30;;;;;;;5.97;4.85;;;;;;;18.64;28.36;103386.06;16124184;19;129576;-50
2023/01/25 09:56:03;;;;;;;4.50;4.10;;;;;;;18.63;28.47;103381.56;16124773;19;131899;-54
2023/01/25 10:01:46;;;;;;;4.47;4.07;;;;;;;18.60;28.60;103380.88;16123842;19;129863;-58
2023/01/25 10:07:18;;;;;;;4.45;4.05;;;;;;;18.56;28.87;103385.06;16121558;19;131080;-51
2023/01/25 10:12:40;;;;;;;4.68;4.15;;;;;;;18.53;28.77;103377.09;16118148;19;129307;-54
2023/01/25 10:18:15;;;;;;;5.28;3.80;;;;;;;18.53;29.11;103370.72;16118701;19;132429;-53
2023/01/25 10:23:52;;;;;;;4.10;3.70;;;;;;;18.52;28.74;103371.75;16118527;19;129405;-52
2023/01/25 10:29:18;;;;;;;4.30;3.90;;;;;;;18.51;28.90;103368.13;16121237;19;129855;-53
2023/01/25 10:34:46;;;;;;;;;;;;;;;18.46;29.20;103365.03;16117115;19;130757;-52
2023/01/25 10:40:23;;;;;;;4.65;4.20;;;;;;;18.46;28.73;103343.72;16121356;19;129645;-50
2023/01/25 10:45:46;;;;;;;4.27;3.83;;;;;;;18.45;29.12;103342.03;16120590;19;131082;-54
2023/01/25 10:51:08;;;;;;;5.05;4.43;;;;;;;18.43;28.89;103324.72;16120292;19;129668;-52
2023/01/25 10:56:37;;;;;;;5.47;4.97;;;;;;;18.44;29.06;103311.69;16122477;19;129657;-53
2023/01/25 11:02:36;;;;;;;5.50;5.00;;;;;;;18.42;29.23;103298.03;16117586;19;130735;-52
2023/01/25 11:08:14;;;;;;;7.47;6.25;;;;;;;18.38;28.89;103293.88;16116479;19;129692;-50
2023/01/25 11:13:40;;;;;;;6.93;5.85;;;;;;;18.38;29.13;103280.03;16126480;19;129504;-52
2023/01/25 11:19:22;;;;;;;7.18;6.13;;;;;;;18.35;29.02;103266.53;16132937;19;130989;-51
2023/01/25 11:24:44;;;;;;;8.55;7.65;;;;;;;18.32;29.01;103258.63;16132199;19;129628;-52
2023/01/25 11:30:14;;;;;;;9.60;7.35;;;;;;;18.31;28.67;103254.13;16133310;19;131835;-50
2023/01/25 11:35:48;;;;;;;8.55;7.57;;;;;;;18.29;28.78;103231.28;16130137;19;129508;-50
2023/01/25 11:41:19;;;;;;;13.70;9.05;;;;;;;18.25;28.61;103224.38;16133879;19;129784;-52
2023/01/25 11:47:03;;;;;;;10.18;9.07;;;;;;;18.23;28.93;103204.28;16131427;19;130368;-58
2023/01/25 11:52:43;;;;;;;11.35;9.40;;;;;;;18.19;28.98;103189.13;16131617;19;129583;-57
2023/01/25 11:58:35;;;;;;;11.93;10.63;;;;;;;18.12;28.70;103170.47;16133727;19;129412;-55
2023/01/25 12:04:18;;;;;;;12.85;11.00;;;;;;;18.17;28.48;103167.13;16133814;19;129483;-56
2023/01/25 12:09:50;;;;;;;13.63;11.68;;;;;;;18.34;28.36;103153.97;16131002;19;131022;-54
2023/01/25 12:15:34;;;;;;;13.45;11.40;;;;;;;18.48;28.37;103141.22;16135384;19;129748;-60
2023/01/25 12:21:14;;;;;;;11.80;10.60;;;;;;;18.57;28.76;103139.22;16131932;19;129645;-61
2023/01/25 12:27:28;;;;;;;14.73;10.70;;;;;;;18.58;28.70;103118.75;16128107;19;130319;-56
2023/01/25 12:32:56;;;;;;;16.98;12.82;;;;;;;18.54;28.57;103101.63;16126815;19;129564;-57
2023/01/25 12:38:42;;;;;;;14.40;12.50;;;;;;;18.57;28.34;103101.25;16129975;19;131092;-56
2023/01/25 12:44:32;;;;;;;16.30;13.25;;;;;;;18.66;28.19;103088.13;16129085;19;130808;-55
2023/01/25 12:50:49;;;;;;;20.48;12.82;;;;;;;18.75;28.21;103070.31;16128380;19;130800;-54
2023/01/25 12:56:32;;;;;;;14.33;12.33;;;;;;;18.88;28.70;103055.78;16117448;19;129091;-53
2023/01/25 13:02:37;;;;;;;16.00;12.40;;;;;;;18.94;30.14;103045.81;16120587;19;129547;-54
2023/01/25 13:08:17;;;;;;;17.52;10.57;;;;;;;18.95;32.45;103025.34;16115022;19;129328;-50
2023/01/25 13:13:52;;;;;;;13.10;9.85;;;;;;;18.95;33.80;103008.69;16117414;19;129468;-53
2023/01/25 13:19:37;;;;;;;12.95;10.43;;;;;;;19.00;35.91;103013.66;16115147;19;131440;-54
2023/01/25 13:25:01;;;;;;;10.55;8.77;;;;;;;19.06;36.76;103016.50;16108464;19;130835;-51
2023/01/25 13:30:33;;;;;;;17.90;12.40;;;;;;;19.05;36.11;103002.78;16105938;19;129418;-52
2023/01/25 13:35:55;;;;;;;22.42;11.77;;;;;;;19.04;36.21;103001.06;16111555;19;130789;-51
2023/01/25 13:41:17;;;;;;;33.83;12.23;;;;;;;19.01;36.05;102984.84;16118882;19;130970;-48
2023/01/25 13:46:38;;;;;;;33.65;11.80;;;;;;;19.00;36.46;102970.09;16123003;19;130099;-51
2023/01/25 13:52:03;;;;;;;27.55;10.95;;;;;;;18.97;36.94;102967.72;16123620;19;129581;-55
2023/01/25 13:57:26;;;;;;;26.48;10.35;;;;;;;;;;16119633;19;129821;-54
2023/01/25 14:02:53;;;;;;;33.33;10.88;;;;;;;18.84;38.35;102951.81;16116786;19;130231;-53
2023/01/25 14:08:18;;;;;;;19.98;9.95;;;;;;;18.79;38.39;102959.03;16112985;19;131068;-50
2023/01/25 14:14:12;;;;;;;24.92;11.68;;;;;;;18.70;38.07;102956.41;16116201;19;129358;-50
2023/01/25 14:19:43;;;;;;;26.55;12.32;;;;;;;18.61;38.80;102963.97;16116074;19;134406;-55
2023/01/25 14:25:11;;;;;;;31.38;12.80;;;;;;;18.53;39.04;102968.78;16117614;19;130252;-55
2023/01/25 14:30:34;;;;;;;22.70;11.23;;;;;;;18.47;39.09;102967.66;16121318;19;130784;-53
2023/01/25 14:36:08;;;;;;;27.98;10.15;;;;;;;18.45;39.83;102970.63;16119446;19;129302;-51
2023/01/25 14:41:46;;;;;;;15.25;10.68;;;;;;;18.41;39.54;102971.19;16122436;19;129234;-55
2023/01/25 14:47:30;;;;;;;22.05;10.32;;;;;;;18.43;40.66;102961.63;16116775;19;129876;-56
2023/01/25 14:52:51;;;;;;;15.40;8.43;;;;;;;18.46;40.53;102955.69;16123974;19;130843;-55
2023/01/25 14:58:20;;;;;;;15.82;8.98;;;;;;;18.52;41.02;102944.88;16120673;19;133439;-56
2023/01/25 15:03:43;;;;;;;16.48;7.30;;;;;;;18.56;40.51;102938.75;16116620;19;129814;-52
2023/01/25 15:09:28;;;;;;;17.10;7.90;;;;;;;18.62;40.56;102939.88;16118122;19;129245;-55
2023/01/25 15:14:52;;;;;;;12.38;7.70;;;;;;;18.63;40.51;102927.72;16117462;19;130194;-53
2023/01/25 15:20:27;;;;;;;18.77;8.38;;;;;;;18.66;39.62;102926.47;16116106;19;131655;-57
2023/01/25 15:25:52;;;;;;;16.50;9.10;;;;;;;18.65;39.21;102919.19;16118989;19;130950;-52
2023/01/25 15:31:20;;;;;;;10.18;9.15;;;;;;;18.66;39.56;102916.25;16119375;19;131373;-56
2023/01/25 15:36:42;;;;;;;10.57;8.90;;;;;;;18.62;39.54;102923.22;16111873;19;129454;-56
2023/01/25 15:42:05;;;;;;;12.68;9.48;;;;;;;18.62;39.26;102926.00;16117127;19;129470;-54
2023/01/25 15:47:26;;;;;;;13.48;10.05;;;;;;;18.60;39.61;102919.78;16113119;19;130783;-55
2023/01/25 15:52:48;;;;;;;12.32;9.65;;;;;;;18.57;40.07;102914.66;16115550;19;134029;-53
2023/01/25 15:58:21;;;;;;;10.35;9.25;;;;;;;18.52;40.71;102908.84;16122327;19;129999;-52
2023/01/25 16:03:43;;;;;;;14.10;10.27;;;;;;;18.42;40.42;102887.88;16126950;19;130009;-52
2023/01/25 16:09:34;;;;;;;14.32;10.38;;;;;;;18.36;40.78;102896.91;16128549;19;129639;-53
2023/01/25 16:14:59;;;;;;;13.10;11.15;;;;;;;18.31;40.10;102902.22;16126082;19;129937;-52
2023/01/25 16:20:21;;;;;;;14.63;11.05;;;;;;;18.22;39.94;102893.16;16127395;19;130428;-53
2023/01/25 16:25:43;;;;;;;13.48;10.82;;;;;;;18.17;39.92;102905.88;16123539;19;130077;-52
2023/01/25 16:31:05;;;;;;;15.75;12.10;;;;;;;18.09;39.70;102899.38;16131029;19;129613;-54
2023/01/25 16:36:28;;;;;;;16.02;14.35;;;;;;;18.03;39.89;102905.72;16124217;19;129622;-56
2023/01/25 16:41:50;;;;;;;13.85;12.35;;;;;;;18.03;39.73;102927.88;16126746;19;129585;-56
2023/01/25 16:47:14;;;;;;;12.85;11.38;;;;;;;18.06;40.19;102932.16;16126223;19;130968;-56
2023/01/25 16:52:35;;;;;;;13.88;11.35;;;;;;;18.10;40.12;102928.78;16123946;19;129702;-51
2023/01/25 16:57:57;;;;;;;12.05;9.07;;;;;;;18.22;40.92;102914.44;16128519;19;129735;-55
2023/01/25 17:03:19;;;;;;;8.50;7.57;;;;;;;18.45;41.32;102926.28;16126444;19;130018;-56
2023/01/25 17:08:41;;;;;;;13.95;6.65;;;;;;;18.70;40.97;102914.81;16122486;19;129819;-55
2023/01/25 17:14:04;;;;;;;12.10;6.70;;;;;;;18.93;41.49;102919.28;16129367;19;130434;-53
2023/01/25 17:19:26;;;;;;;12.98;6.22;;;;;;;19.15;41.36;102908.13;16125454;19;128776;-53
2023/01/25 17:24:48;;;;;;;12.45;6.47;;;;;;;19.24;41.49;102895.00;16113354;19;131479;-51
2023/01/25 17:30:11;;;;;;;14.70;6.57;;;;;;;19.22;41.77;102887.75;16125234;19;129286;-53
2023/01/25 17:35:35;;;;;;;12.32;7.80;;;;;;;19.14;41.72;102865.66;16121146;19;129410;-51
2023/01/25 17:41:02;;;;;;;15.35;7.75;;;;;;;19.02;41.96;102865.34;16121025;19;130264;-51
2023/01/25 17:46:31;;;;;;;14.35;8.60;;;;;;;18.88;42.33;102850.53;16123842;19;129658;-52
2023/01/25 17:51:53;;;;;;;12.38;8.80;;;;;;;18.76;42.68;102829.97;16125692;19;129293;-49
2023/01/25 17:57:18;;;;;;;12.68;7.57;;;;;;;18.71;42.96;102819.44;16121338;19;129573;-52
2023/01/25 18:02:43;;;;;;;11.05;7.28;;;;;;;18.74;43.09;102799.66;16121682;19;129596;-52
2023/01/25 18:08:06;;;;;;;9.32;6.15;;;;;;;18.81;43.45;102785.84;16121119;19;130514;-50
2023/01/25 18:13:27;;;;;;;11.20;6.53;;;;;;;19.10;42.81;102755.28;16117100;19;129653;-51
2023/01/25 18:18:51;;;;;;;14.45;6.40;;;;;;;19.42;43.12;102736.28;16117834;19;129679;-54
2023/01/25 18:24:13;;;;;;;10.80;6.47;;;;;;;19.73;42.43;102743.19;16119204;19;130489;-59
2023/01/25 18:29:46;;;;;;;15.82;6.15;;;;;;;19.86;42.28;102726.56;16120733;19;130083;-57
2023/01/25 18:35:08;;;;;;;14.00;7.10;;;;;;;19.91;42.39;102728.69;16121984;19;130506;-56
2023/01/25 18:40:30;;;;;;;16.70;6.57;;;;;;;19.87;42.11;102721.88;16124326;19;130525;-54
2023/01/25 18:45:56;;;;;;;16.27;6.53;;;;;;;19.78;42.11;102724.84;16125440;19;130088;-54
2023/01/25 18:51:18;;;;;;;15.38;6.93;;;;;;;19.68;42.46;102705.81;16118820;19;131098;-55
2023/01/25 18:56:40;;;;;;;13.20;6.60;;;;;;;19.68;42.89;102708.59;16116797;19;129586;-49
2023/01/25 19:02:02;;;;;;;18.98;7.38;;;;;;;19.74;43.40;102694.91;16118373;19;129580;-49
2023/01/25 19:07:24;;;;;;;24.95;6.40;;;;;;;19.79;43.34;102698.78;16115724;19;129326;-55
2023/01/25 19:12:46;;;;;;;25.95;6.70;;;;;;;19.88;43.33;102710.53;16116943;19;129764;-48
2023/01/25 19:18:08;;;;;;;28.25;7.13;;;;;;;20.15;43.11;102696.72;16118087;19;130584;-51
2023/01/25 19:23:34;;;;;;;15.32;5.75;;;;;;;20.44;42.46;102684.28;16117593;19;130158;-53
2023/01/25 19:28:57;;;;;;;19.67;6.03;;;;;;;20.58;42.47;102671.22;16116779;19;129592;-55
2023/01/25 19:34:18;;;;;;;8.90;5.13;;;;;;;20.66;42.54;102647.03;16123564;19;129582;-56
2023/01/25 19:39:40;;;;;;;20.38;5.85;;;;;;;20.65;42.23;102631.41;16126859;19;131631;-52
2023/01/25 19:45:02;;;;;;;17.85;8.05;;;;;;;20.50;40.83;102643.66;16130871;19;129429;-48
2023/01/25 19:50:24;;;;;;;23.52;8.55;;;;;;;20.40;40.91;102648.81;16129239;19;129556;-52
2023/01/25 19:55:45;;;;;;;23.95;7.85;;;;;;;20.34;41.56;102639.41;16129089;19;130062;-48
2023/01/25 20:01:18;;;;;;;24.80;7.57;;;;;;;20.38;41.60;102628.72;16127175;19;130033;-49
2023/01/25 20:06:41;;;;;;;22.35;7.35;;;;;;;20.35;41.88;102627.22;16126887;19;132034;-51
2023/01/25 20:12:06;;;;;;;22.33;8.57;;;;;;;20.38;41.23;102626.75;16130352;19;129879;-52
2023/01/25 20:17:28;;;;;;;30.17;7.28;;;;;;;20.63;41.22;102625.22;16130039;19;129687;-47
2023/01/25 20:22:51;;;;;;;14.20;6.63;;;;;;;20.96;40.84;102622.34;16127732;19;129788;-46
2023/01/25 20:28:13;;;;;;;25.92;7.13;;;;;;;21.25;40.14;102616.41;16127649;19;131208;-49
2023/01/25 20:33:35;;;;;;;19.08;6.00;;;;;;;21.48;40.25;102608.34;16127149;19;129451;-51
2023/01/25 20:38:57;;;;;;;25.15;5.85;;;;;;;21.68;39.93;102615.72;16125774;19;129365;-50
2023/01/25 20:44:19;;;;;;;12.75;5.72;;;;;;;21.81;39.69;102603.63;16119375;19;129756;-51
2023/01/25 20:49:41;;;;;;;13.65;5.35;;;;;;;21.88;39.77;102611.94;16123779;19;130331;-52
2023/01/25 20:55:04;;;;;;;19.90;5.95;;;;;;;21.95;39.16;102609.91;16124400;19;129726;-50
2023/01/25 21:00:25;;;;;;;13.00;5.60;;;;;;;22.05;39.24;102593.53;16124150;19;129913;-50
2023/01/25 21:05:51;;;;;;;12.98;5.40;;;;;;;22.14;38.97;102574.56;16123458;19;129561;-47
2023/01/25 21:11:14;;;;;;;15.02;4.82;;;;;;;22.22;38.91;102591.03;16125041;19;132925;-47
2023/01/25 21:16:35;;;;;;;10.85;5.30;;;;;;;22.21;38.57;102575.41;16122590;19;130288;-48
2023/01/25 21:21:57;;;;;;;9.75;4.75;;;;;;;22.13;38.85;102567.28;16120661;19;129197;-49
2023/01/25 21:27:19;;;;;;;13.23;5.47;;;;;;;22.06;38.85;102561.78;16120544;19;130507;-48
2023/01/25 21:32:41;;;;;;;12.25;4.65;;;;;;;22.00;39.03;102554.38;16119451;19;129103;-49
2023/01/25 21:38:03;;;;;;;12.93;5.60;;;;;;;21.91;38.80;102550.19;16117117;19;131338;-58
2023/01/25 21:43:25;;;;;;;14.25;6.13;;;;;;;21.72;38.77;102541.75;16118130;19;129607;-49
2023/01/25 21:54:30;;;;;;;16.52;8.60;;;;;;;21.17;37.62;102537.66;16117505;19;129016;-52
2023/01/25 21:59:52;;;;;;;20.90;8.00;;;;;;;20.97;37.92;102532.25;16123619;19;129787;-52
2023/01/25 22:05:15;;;;;;;17.75;7.20;;;;;;;20.78;38.09;102541.53;16121320;19;130153;-53
2023/01/25 22:10:36;;;;;;;11.55;6.93;;;;;;;20.59;38.58;102549.72;16119253;19;130768;-53
2023/01/25 22:16:00;;;;;;;10.35;6.68;;;;;;;20.41;38.61;102545.72;16118528;19;131527;-52
2023/01/25 22:21:24;;;;;;;11.30;6.63;;;;;;;20.27;39.09;102555.16;16120366;19;129160;-55
2023/01/25 22:26:58;;;;;;;15.07;6.60;;;;;;;20.13;38.96;102551.59;16119989;19;129436;-51
2023/01/25 22:32:20;;;;;;;13.07;7.03;;;;;;;19.97;39.42;102548.16;16121303;19;130032;-54
2023/01/25 22:37:41;;;;;;;9.10;6.03;;;;;;;19.85;39.54;102541.53;16115826;19;129532;-55
2023/01/25 22:43:03;;;;;;;11.07;6.90;;;;;;;19.75;39.69;102528.13;16121257;19;130578;-53
2023/01/25 22:48:25;;;;;;;8.20;5.65;;;;;;;19.65;39.33;102525.75;16117904;19;130027;-52
2023/01/25 22:53:47;;;;;;;7.70;5.82;;;;;;;19.56;39.86;102518.72;16121666;19;130828;-53
2023/01/25 22:59:13;;;;;;;6.95;5.30;;;;;;;19.48;39.83;102519.78;16119826;19;130438;-56
2023/01/25 23:04:35;;;;;;;7.18;4.65;;;;;;;19.39;40.16;102521.03;16115737;19;129788;-54
2023/01/25 23:09:57;;;;;;;7.05;5.20;;;;;;;19.28;40.28;102508.69;16129041;19;129781;-51
2023/01/25 23:15:19;;;;;;;7.25;5.57;;;;;;;19.19;40.21;102505.22;16132333;19;130142;-53
2023/01/25 23:20:40;;;;;;;6.22;5.07;;;;;;;19.13;40.23;102502.44;16130848;19;130478;-55
2023/01/25 23:26:02;;;;;;;6.68;5.35;;;;;;;19.05;40.05;102504.34;16127956;19;130242;-52
2023/01/25 23:31:24;;;;;;;7.50;5.72;;;;;;;18.98;40.23;102497.91;16128486;19;129137;-52
2023/01/25 23:36:46;;;;;;;6.88;5.13;;;;;;;18.90;40.54;102487.88;16130007;19;130372;-51
2023/01/25 23:42:08;;;;;;;8.32;4.78;;;;;;;18.85;40.21;102481.25;16135649;19;130807;-54
2023/01/25 23:47:30;;;;;;;5.15;4.65;;;;;;;18.77;40.39;102474.84;16129064;19;130139;-52
2023/01/25 23:52:52;;;;;;;8.13;4.75;;;;;;;18.73;40.36;102472.72;16131112;19;130202;-51
2023/01/25 23:58:13;;;;;;;5.20;4.70;;;;;;;18.69;40.69;102466.75;16131348;19;133063;-52
